Time;durP1;ratioP1;P1;durP2;ratioP2;P2;SDS_P1;SDS_P2;PMS_P1;PMS_P2;Temp;Humidity;BMP_temperature;BMP_pressure;BME280_temperature;BME280_humidity;BME280_pressure;Samples;Min_cycle;Max_cycle;Signal;HPM_P1;HPM_P2
2022/02/26 00:00:42;;;;;;;25.60;4.85;;;;;;;1.94;100.00;103325.63;5070494;28;20047;-75
2022/02/26 00:03:07;;;;;;;23.00;4.22;;;;;;;1.92;100.00;103334.94;5065491;28;20074;-76
2022/02/26 00:05:33;;;;;;;24.52;5.28;;;;;;;1.92;100.00;103342.72;5054497;28;20082;-77
2022/02/26 00:07:59;;;;;;;15.48;4.68;;;;;;;1.87;100.00;103343.06;5037497;28;20044;-77
2022/02/26 00:10:25;;;;;;;22.40;5.53;;;;;;;1.84;100.00;103339.41;5047547;28;20484;-77
2022/02/26 00:12:52;;;;;;;28.70;5.07;;;;;;;1.68;100.00;103342.28;5048160;28;20040;-77
2022/02/26 00:15:21;;;;;;;20.98;4.40;;;;;;;1.62;100.00;103341.69;5055141;28;20028;-77
2022/02/26 00:17:47;;;;;;;25.40;5.72;;;;;;;1.62;100.00;103346.88;5063499;28;20029;-77
2022/02/26 00:20:13;;;;;;;22.17;4.38;;;;;;;1.61;100.00;103352.84;5067752;28;20078;-75
2022/02/26 00:22:38;;;;;;;27.38;5.93;;;;;;;1.62;100.00;103359.88;5049029;28;20024;-75
2022/02/26 00:25:04;;;;;;;20.38;5.47;;;;;;;1.59;100.00;103346.63;5066351;28;20485;-76
2022/02/26 00:27:30;;;;;;;25.42;6.65;;;;;;;1.64;100.00;103355.75;5064105;28;20078;-76
2022/02/26 00:29:55;;;;;;;31.45;6.43;;;;;;;1.71;100.00;103362.44;5063236;28;21682;-76
2022/02/26 00:32:21;;;;;;;31.88;5.20;;;;;;;1.66;100.00;103363.69;5061565;28;20078;-77
2022/02/26 00:34:46;;;;;;;29.85;5.40;;;;;;;1.69;100.00;103367.44;5054624;28;20032;-77
2022/02/26 00:37:11;;;;;;;28.38;5.35;;;;;;;1.75;100.00;103369.72;5050802;28;20033;-77
2022/02/26 00:39:37;;;;;;;21.35;5.15;;;;;;;1.66;100.00;103361.97;5066622;28;20036;-77
2022/02/26 00:42:03;;;;;;;28.30;4.90;;;;;;;1.60;100.00;103364.03;5058890;28;20025;-77
2022/02/26 00:44:28;;;;;;;21.20;4.80;;;;;;;1.54;100.00;103353.06;5044683;28;20040;-76
2022/02/26 00:46:53;;;;;;;23.50;4.72;;;;;;;1.63;100.00;103356.50;5045814;28;20020;-77
2022/02/26 00:52:03;;;;;;;27.05;4.68;;;;;;;1.54;100.00;103367.72;5061073;28;20515;-76
2022/02/26 00:54:29;;;;;;;24.13;4.93;;;;;;;1.55;100.00;103370.44;5046408;28;20012;-77
2022/02/26 00:56:54;;;;;;;31.35;4.88;;;;;;;1.45;100.00;103367.75;5063759;28;20046;-77
2022/02/26 00:59:19;;;;;;;25.42;5.03;;;;;;;1.35;100.00;103366.88;5061808;28;20028;-77
2022/02/26 01:01:46;;;;;;;17.63;4.60;;;;;;;1.32;100.00;103371.78;5049769;28;20095;-77
2022/02/26 01:04:12;;;;;;;19.70;4.68;;;;;;;1.35;100.00;103372.06;5041563;28;20036;-77
2022/02/26 01:06:37;;;;;;;21.73;4.65;;;;;;;1.37;100.00;103371.28;5046569;28;20017;-77
2022/02/26 01:09:04;;;;;;;25.40;4.18;;;;;;;1.28;100.00;103369.66;5054831;28;20396;-77
2022/02/26 01:11:29;;;;;;;14.18;3.83;;;;;;;1.28;100.00;103368.75;5047996;28;20481;-76
2022/02/26 01:13:55;;;;;;;19.60;4.10;;;;;;;1.25;100.00;103361.59;5061395;28;20032;-76
2022/02/26 01:16:20;;;;;;;27.25;4.32;;;;;;;1.22;100.00;103358.72;5057004;28;20027;-76
2022/02/26 01:18:47;;;;;;;21.02;4.22;;;;;;;1.27;100.00;103364.34;5055130;28;20456;-76
2022/02/26 01:21:12;;;;;;;17.05;3.55;;;;;;;1.29;100.00;103361.13;5062702;28;20090;-76
2022/02/26 01:23:37;;;;;;;15.23;4.30;;;;;;;1.23;100.00;103346.66;5068205;28;20025;-76
2022/02/26 01:26:03;;;;;;;19.38;5.13;;;;;;;1.20;100.00;103352.47;5070264;28;20031;-77
2022/02/26 01:28:28;;;;;;;22.55;4.35;;;;;;;1.25;100.00;103348.63;5052521;28;20106;-76
2022/02/26 01:30:54;;;;;;;10.65;3.38;;;;;;;1.18;100.00;103343.59;5060776;28;20028;-77
2022/02/26 01:33:19;;;;;;;20.17;4.18;;;;;;;1.12;100.00;103348.22;5052971;28;20044;-77
2022/02/26 01:35:44;;;;;;;21.45;3.97;;;;;;;1.12;100.00;103345.63;5073426;28;20111;-77
2022/02/26 01:38:10;;;;;;;18.77;3.60;;;;;;;1.18;100.00;103351.38;5055351;28;20024;-77
2022/02/26 01:40:35;;;;;;;24.77;4.68;;;;;;;1.13;100.00;103350.97;5057160;28;20027;-77
2022/02/26 01:43:00;;;;;;;16.92;4.25;;;;;;;1.08;100.00;103343.50;5044744;28;20044;-77
2022/02/26 01:45:26;;;;;;;18.42;4.60;;;;;;;1.00;100.00;103341.09;5066767;28;20024;-77
2022/02/26 01:47:53;;;;;;;17.17;4.45;;;;;;;1.17;100.00;103352.19;5042927;28;20111;-77
2022/02/26 01:50:20;;;;;;;13.65;3.78;;;;;;;0.96;100.00;103349.34;5050829;28;20055;-77
2022/02/26 01:52:46;;;;;;;16.13;4.00;;;;;;;0.89;100.00;103352.09;5042974;28;20123;-77
2022/02/26 01:55:11;;;;;;;16.35;4.13;;;;;;;0.88;100.00;103359.75;5059654;28;20070;-77
2022/02/26 01:57:37;;;;;;;17.52;4.35;;;;;;;0.82;100.00;103370.44;5044839;28;20031;-77
2022/02/26 02:00:05;;;;;;;28.13;4.85;;;;;;;0.80;100.00;103374.53;5061369;28;20048;-77
2022/02/26 02:02:31;;;;;;;20.38;4.38;;;;;;;0.81;100.00;103384.16;5024927;28;20158;-77
2022/02/26 02:04:57;;;;;;;20.73;5.65;;;;;;;0.83;100.00;103374.84;5070924;28;20034;-75
2022/02/26 02:07:24;;;;;;;20.13;5.07;;;;;;;0.84;100.00;103376.66;5050718;28;20438;-76
2022/02/26 02:09:49;;;;;;;36.75;5.05;;;;;;;0.83;100.00;103374.84;5067538;28;20029;-76
2022/02/26 02:12:15;;;;;;;25.88;5.70;;;;;;;0.77;100.00;103364.78;5050493;28;20384;-78
2022/02/26 02:14:44;;;;;;;22.50;5.25;;;;;;;0.76;100.00;103370.75;5069924;28;20025;-76
2022/02/26 02:17:10;;;;;;;19.27;5.13;;;;;;;0.78;100.00;103361.44;5057308;28;20039;-78
2022/02/26 02:19:35;;;;;;;23.33;5.38;;;;;;;0.72;100.00;103359.91;5057752;28;20033;-75
2022/02/26 02:22:03;;;;;;;20.20;6.30;;;;;;;0.79;100.00;103364.97;5054866;28;20037;-76
2022/02/26 02:24:29;;;;;;;22.13;6.32;;;;;;;0.79;100.00;103360.69;5054112;28;20454;-75
2022/02/26 02:26:54;;;;;;;35.25;5.78;;;;;;;0.75;100.00;103374.09;5049690;28;20100;-75
2022/02/26 02:29:20;;;;;;;21.48;5.28;;;;;;;0.73;100.00;103374.72;5054386;28;20028;-76
2022/02/26 02:31:45;;;;;;;17.75;5.95;;;;;;;0.65;100.00;103372.31;5049159;28;20036;-75
2022/02/26 02:34:11;;;;;;;28.55;5.00;;;;;;;0.62;100.00;103371.97;5064613;28;20029;-75
2022/02/26 02:36:43;;;;;;;23.23;5.22;;;;;;;0.59;100.00;103371.69;5067162;28;20031;-76
2022/02/26 02:39:10;;;;;;;23.15;4.72;;;;;;;0.54;100.00;103372.91;5072183;28;20389;-77
2022/02/26 02:41:35;;;;;;;22.00;5.63;;;;;;;0.63;100.00;103383.28;5053801;28;20438;-76
2022/02/26 02:44:01;;;;;;;17.55;4.93;;;;;;;0.63;100.00;103384.19;5067778;28;20028;-76
2022/02/26 02:46:26;;;;;;;14.80;5.13;;;;;;;0.53;100.00;103386.66;5047154;28;20150;-76
2022/02/26 02:48:52;;;;;;;18.25;5.70;;;;;;;0.44;100.00;103391.81;5036621;28;20053;-76
2022/02/26 02:51:18;;;;;;;19.73;5.35;;;;;;;0.47;100.00;103391.22;5028811;28;20548;-76
2022/02/26 02:53:43;;;;;;;21.23;5.43;;;;;;;0.45;100.00;103388.47;5035088;28;20033;-75
2022/02/26 02:56:08;;;;;;;23.98;5.38;;;;;;;0.39;100.00;103402.50;5027006;28;20037;-76
2022/02/26 02:58:34;;;;;;;21.35;5.57;;;;;;;0.38;100.00;103406.78;5030449;28;20482;-76
2022/02/26 03:01:00;;;;;;;20.88;6.03;;;;;;;0.37;100.00;103404.00;5039283;28;20033;-77
2022/02/26 03:03:25;;;;;;;26.60;5.47;;;;;;;0.42;100.00;103400.19;5025480;28;20028;-76
2022/02/26 03:05:51;;;;;;;17.00;5.65;;;;;;;0.52;100.00;103408.13;5041374;28;20036;-76
2022/02/26 03:08:16;;;;;;;28.90;5.45;;;;;;;0.39;100.00;103407.66;5037257;28;20040;-76
2022/02/26 03:10:42;;;;;;;14.07;5.15;;;;;;;0.34;100.00;103407.22;5021734;28;20474;-76
2022/02/26 03:13:07;;;;;;;28.88;7.28;;;;;;;0.43;100.00;103407.22;5021730;28;20059;-76
2022/02/26 03:15:33;;;;;;;21.83;5.97;;;;;;;0.39;100.00;103413.75;5028776;28;20020;-76
2022/02/26 03:17:58;;;;;;;16.35;5.05;;;;;;;0.38;100.00;103411.00;5034289;28;20063;-76
2022/02/26 03:20:24;;;;;;;24.23;6.05;;;;;;;0.37;100.00;103404.00;5016964;28;20032;-77
2022/02/26 03:22:49;;;;;;;18.52;5.45;;;;;;;0.31;100.00;103409.47;5047590;28;20028;-76
2022/02/26 03:25:16;;;;;;;16.23;4.63;;;;;;;0.28;100.00;103414.38;5038941;28;20017;-76
2022/02/26 03:27:42;;;;;;;18.17;6.45;;;;;;;0.20;100.00;103411.00;5046162;28;20378;-75
2022/02/26 03:30:09;;;;;;;18.67;5.60;;;;;;;0.27;100.00;103423.81;5045991;28;20038;-76
2022/02/26 03:32:36;;;;;;;28.10;7.22;;;;;;;0.24;100.00;103420.00;5044696;28;20496;-77
2022/02/26 03:35:05;;;;;;;16.27;5.35;;;;;;;0.22;100.00;103419.84;5049448;28;20477;-76
2022/02/26 03:37:31;;;;;;;19.80;5.47;;;;;;;0.21;100.00;103425.78;5034093;28;20035;-77
2022/02/26 03:39:57;;;;;;;20.40;6.03;;;;;;;0.20;100.00;103426.53;5039353;28;20040;-76
2022/02/26 03:42:22;;;;;;;17.60;5.28;;;;;;;0.20;100.00;103436.91;5044157;28;20044;-76
2022/02/26 03:44:48;;;;;;;16.85;5.43;;;;;;;0.21;100.00;103443.00;5044977;28;20029;-76
2022/02/26 03:47:16;;;;;;;25.20;6.20;;;;;;;0.14;100.00;103441.47;5017204;28;20029;-77
2022/02/26 03:49:41;;;;;;;24.70;5.47;;;;;;;0.18;100.00;103443.63;5037384;28;20523;-76
2022/02/26 03:52:07;;;;;;;19.60;5.40;;;;;;;0.08;100.00;103440.84;5039809;28;20021;-76
2022/02/26 03:54:32;;;;;;;13.25;5.35;;;;;;;0.10;100.00;103449.69;5028607;28;20057;-76
2022/02/26 03:56:57;;;;;;;22.77;6.07;;;;;;;0.10;100.00;103447.09;5025680;28;20031;-76
2022/02/26 03:59:23;;;;;;;19.63;5.50;;;;;;;0.11;100.00;103448.91;5034915;28;20049;-76
2022/02/26 04:01:48;;;;;;;26.25;6.22;;;;;;;0.12;100.00;103442.97;5050624;28;20068;-76
2022/02/26 04:04:13;;;;;;;19.65;5.35;;;;;;;0.13;100.00;103456.06;5043090;28;20876;-76
2022/02/26 04:06:39;;;;;;;22.35;6.78;;;;;;;0.18;100.00;103453.97;5030064;28;20040;-77
2022/02/26 04:09:06;;;;;;;18.38;5.07;;;;;;;0.17;100.00;103453.03;5043970;28;20032;-76
2022/02/26 04:11:31;;;;;;;17.98;4.65;;;;;;;0.20;100.00;103451.53;5029561;28;20040;-76
2022/02/26 04:13:57;;;;;;;27.52;6.97;;;;;;;0.17;100.00;103452.13;5033814;28;20021;-76
2022/02/26 04:16:22;;;;;;;25.13;6.00;;;;;;;0.24;100.00;103448.50;5047143;28;20103;-76
2022/02/26 04:18:47;;;;;;;16.08;5.10;;;;;;;0.21;100.00;103453.38;5043823;28;20033;-76
2022/02/26 04:21:13;;;;;;;16.10;5.25;;;;;;;0.26;100.00;103452.13;5035974;28;20032;-76
2022/02/26 04:23:39;;;;;;;30.92;6.43;;;;;;;0.25;100.00;103453.81;5039105;28;20030;-77
2022/02/26 04:26:04;;;;;;;19.92;5.72;;;;;;;0.25;100.00;103451.22;5049944;28;20036;-77
2022/02/26 04:28:29;;;;;;;31.13;5.40;;;;;;;0.24;100.00;103464.94;5040861;28;20029;-77
2022/02/26 04:30:55;;;;;;;28.38;6.53;;;;;;;0.24;100.00;103467.50;5053421;28;20033;-77
2022/02/26 04:33:20;;;;;;;18.25;5.85;;;;;;;0.27;100.00;103465.25;5053479;28;20075;-76
2022/02/26 04:35:45;;;;;;;28.25;6.93;;;;;;;0.23;100.00;103463.13;5041638;28;20021;-76
2022/02/26 04:38:11;;;;;;;26.75;7.07;;;;;;;0.19;100.00;103466.16;5023509;28;20031;-77
2022/02/26 04:40:36;;;;;;;24.60;5.80;;;;;;;0.22;100.00;103460.34;5047665;28;20025;-77
2022/02/26 04:43:02;;;;;;;21.42;5.45;;;;;;;0.17;100.00;103462.50;5043019;28;20032;-77
2022/02/26 04:45:27;;;;;;;24.02;6.35;;;;;;;0.16;100.00;103469.34;5035759;28;20021;-77
2022/02/26 04:47:53;;;;;;;21.95;7.07;;;;;;;0.30;100.00;103473.31;5027755;28;20064;-77
2022/02/26 04:50:19;;;;;;;19.38;5.97;;;;;;;0.30;100.00;103460.38;5072080;28;20039;-77
2022/02/26 04:52:45;;;;;;;20.77;6.93;;;;;;;0.22;100.00;103468.13;5061404;28;20037;-77
2022/02/26 04:55:12;;;;;;;25.33;6.55;;;;;;;0.27;100.00;103470.44;5054707;28;20147;-77
2022/02/26 04:57:37;;;;;;;30.92;7.13;;;;;;;0.30;100.00;103473.31;5062178;28;20040;-77
2022/02/26 05:00:09;;;;;;;24.95;5.78;;;;;;;0.39;100.00;103475.00;5059855;28;20028;-77
2022/02/26 05:02:35;;;;;;;21.27;6.55;;;;;;;0.38;100.00;103468.94;5066170;28;20036;-77
2022/02/26 05:05:02;;;;;;;20.90;6.70;;;;;;;0.37;100.00;103476.50;5046519;28;20032;-77
2022/02/26 05:07:27;;;;;;;25.05;6.47;;;;;;;0.32;100.00;103476.97;5059490;28;20028;-77
2022/02/26 05:09:53;;;;;;;19.48;6.60;;;;;;;0.33;100.00;103476.22;5055938;28;20564;-77
2022/02/26 05:12:18;;;;;;;25.02;7.05;;;;;;;0.38;100.00;103470.59;5063225;28;20036;-77
2022/02/26 05:14:44;;;;;;;34.55;7.00;;;;;;;0.52;100.00;103474.56;5049691;28;20036;-77
2022/02/26 05:17:09;;;;;;;20.25;6.32;;;;;;;0.43;100.00;103482.31;5067894;28;20068;-77
2022/02/26 05:19:34;;;;;;;26.55;6.82;;;;;;;0.36;100.00;103480.78;5044792;28;20078;-77
2022/02/26 05:22:00;;;;;;;23.98;6.25;;;;;;;0.32;100.00;103476.97;5062599;28;20036;-77
2022/02/26 05:24:26;;;;;;;29.77;7.25;;;;;;;0.27;100.00;103483.38;5067011;28;20120;-77
2022/02/26 05:26:51;;;;;;;28.75;7.05;;;;;;;0.28;100.00;103495.56;5061000;28;20039;-77
2022/02/26 05:29:16;;;;;;;25.77;8.57;;;;;;;0.31;100.00;103497.53;5055884;28;20546;-77
2022/02/26 05:31:42;;;;;;;31.90;8.32;;;;;;;0.32;100.00;103495.09;5051704;28;20028;-77
2022/02/26 05:34:07;;;;;;;20.13;8.07;;;;;;;0.27;100.00;103504.09;5044182;28;20032;-77
2022/02/26 05:36:33;;;;;;;24.98;7.03;;;;;;;0.21;100.00;103498.28;5063637;28;20500;-78
2022/02/26 05:38:58;;;;;;;19.60;7.32;;;;;;;0.24;100.00;103501.19;5068831;28;20118;-76
2022/02/26 05:41:24;;;;;;;25.85;6.50;;;;;;;0.15;100.00;103508.94;5044613;28;20082;-77
2022/02/26 05:43:49;;;;;;;16.48;6.55;;;;;;;0.12;100.00;103508.63;5050143;28;20029;-78
2022/02/26 05:46:15;;;;;;;18.48;6.25;;;;;;;0.06;100.00;103510.59;5068278;28;20008;-78
2022/02/26 05:48:41;;;;;;;19.67;6.45;;;;;;;0.07;100.00;103512.44;5052293;28;20041;-78
2022/02/26 05:51:07;;;;;;;14.02;6.20;;;;;;;0.01;100.00;103503.13;5066412;28;20384;-76
2022/02/26 05:53:32;;;;;;;21.75;6.88;;;;;;;-0.06;100.00;103504.16;5071736;28;20025;-76
2022/02/26 05:55:58;;;;;;;24.55;7.65;;;;;;;-0.06;100.00;103515.41;5046318;28;20025;-77
2022/02/26 05:58:24;;;;;;;27.63;7.80;;;;;;;-0.01;100.00;103514.22;5053587;28;20028;-76
2022/02/26 06:00:49;;;;;;;33.50;8.48;;;;;;;0.05;100.00;103513.03;5050730;28;20024;-77
2022/02/26 06:03:18;;;;;;;30.65;8.20;;;;;;;-0.02;100.00;103512.38;5068784;28;20507;-77
2022/02/26 06:05:44;;;;;;;29.10;7.75;;;;;;;-0.06;100.00;103511.91;5072693;28;20033;-77
2022/02/26 06:08:09;;;;;;;23.65;8.52;;;;;;;-0.05;100.00;103517.25;5048819;28;20025;-76
2022/02/26 06:10:34;;;;;;;33.83;7.93;;;;;;;-0.06;100.00;103515.41;5060608;28;20885;-76
2022/02/26 06:13:00;;;;;;;21.83;6.85;;;;;;;-0.12;100.00;103514.81;5058237;28;20032;-77
2022/02/26 06:15:26;;;;;;;22.83;7.47;;;;;;;-0.17;100.00;103516.00;5057551;28;20442;-77
2022/02/26 06:17:51;;;;;;;29.42;7.18;;;;;;;-0.08;100.00;103516.94;5056383;28;20038;-77
2022/02/26 06:20:17;;;;;;;22.77;7.13;;;;;;;-0.09;100.00;103517.69;5072940;28;20037;-76
2022/02/26 06:22:42;;;;;;;22.65;6.40;;;;;;;-0.10;100.00;103520.13;5063756;28;20165;-77
2022/02/26 06:25:09;;;;;;;36.78;8.00;;;;;;;-0.14;100.00;103521.47;5057261;28;20532;-78
2022/02/26 06:27:39;;;;;;;25.10;6.80;;;;;;;-0.12;100.00;103527.75;5061374;28;20041;-77
2022/02/26 06:30:07;;;;;;;24.40;7.07;;;;;;;-0.06;100.00;103530.94;5074281;28;20115;-77
2022/02/26 06:32:33;;;;;;;32.80;7.45;;;;;;;-0.07;100.00;103531.72;5057288;28;20036;-77
2022/02/26 06:34:58;;;;;;;25.98;7.55;;;;;;;0.04;100.00;103527.66;5074752;28;20050;-76
2022/02/26 06:37:24;;;;;;;19.17;6.47;;;;;;;-0.06;100.00;103536.13;5059683;28;20446;-76
2022/02/26 06:39:49;;;;;;;22.90;7.35;;;;;;;-0.10;100.00;103541.75;5047381;28;20020;-76
2022/02/26 06:42:15;;;;;;;31.63;7.28;;;;;;;-0.10;100.00;103536.56;5041211;28;20128;-77
2022/02/26 06:44:40;;;;;;;20.17;5.57;;;;;;;-0.02;100.00;103533.09;5053704;28;20419;-77
2022/02/26 06:47:06;;;;;;;22.40;6.15;;;;;;;0.04;100.00;103542.25;5051009;28;20017;-77
2022/02/26 06:49:31;;;;;;;25.52;6.90;;;;;;;0.09;100.00;103539.38;5057751;28;20484;-77
2022/02/26 06:51:56;;;;;;;24.13;6.25;;;;;;;0.08;100.00;103545.31;5048101;28;20032;-76
2022/02/26 06:54:23;;;;;;;24.27;6.30;;;;;;;0.11;100.00;103540.47;5054701;28;20112;-77
2022/02/26 06:56:49;;;;;;;21.95;7.80;;;;;;;0.13;100.00;103549.28;5070846;28;20119;-77
2022/02/26 06:59:14;;;;;;;30.25;7.82;;;;;;;0.13;100.00;103553.56;5054870;28;20361;-77
2022/02/26 07:01:45;;;;;;;18.10;6.97;;;;;;;0.14;100.00;103556.31;5052846;28;20102;-76
2022/02/26 07:04:12;;;;;;;30.42;8.00;;;;;;;0.12;100.00;103562.06;5052577;28;20038;-76
2022/02/26 07:06:43;;;;;;;35.90;8.05;;;;;;;0.13;100.00;103553.56;5053648;28;20115;-76
2022/02/26 07:09:16;;;;;;;22.30;7.85;;;;;;;0.16;100.00;103561.63;5043956;28;20053;-76
2022/02/26 07:11:42;;;;;;;44.67;12.65;;;;;;;0.14;100.00;103561.47;5059847;28;20025;-76
2022/02/26 07:14:08;;;;;;;28.05;9.93;;;;;;;0.17;100.00;103558.28;5060874;28;20029;-76
2022/02/26 07:16:34;;;;;;;19.73;8.52;;;;;;;0.20;100.00;103573.22;5053930;28;20107;-77
2022/02/26 07:19:00;;;;;;;26.48;9.90;;;;;;;0.21;100.00;103572.47;5048176;28;20116;-76
2022/02/26 07:21:26;;;;;;;26.70;9.13;;;;;;;0.24;100.00;103568.50;5066983;28;20094;-77
2022/02/26 07:23:53;;;;;;;34.97;11.70;;;;;;;0.33;100.00;103569.47;5056582;28;20098;-76
2022/02/26 07:26:19;;;;;;;34.08;11.35;;;;;;;0.37;100.00;103580.13;5049104;28;20107;-76
2022/02/26 07:28:44;;;;;;;31.13;12.57;;;;;;;0.44;100.00;103586.09;5058550;28;20064;-77
2022/02/26 07:31:10;;;;;;;24.52;11.25;;;;;;;0.50;100.00;103593.56;5065079;28;20029;-77
2022/02/26 07:33:35;;;;;;;32.60;12.55;;;;;;;0.54;100.00;103584.44;5038282;28;20427;-77
2022/02/26 07:36:00;;;;;;;42.60;13.90;;;;;;;0.57;100.00;103583.09;5056175;28;20108;-77
2022/02/26 07:38:26;;;;;;;40.22;14.30;;;;;;;0.62;100.00;103588.72;5070547;28;20388;-77
2022/02/26 07:40:51;;;;;;;33.30;14.32;;;;;;;0.70;100.00;103590.41;5064355;28;20472;-77
2022/02/26 07:43:16;;;;;;;32.00;15.77;;;;;;;0.72;100.00;103585.38;5062109;28;20067;-77
2022/02/26 07:45:42;;;;;;;44.75;16.67;;;;;;;0.77;100.00;103589.34;5066308;28;20025;-76
2022/02/26 07:48:08;;;;;;;37.65;15.80;;;;;;;0.80;100.00;103592.25;5044371;28;20035;-79
2022/02/26 07:50:34;;;;;;;36.65;15.43;;;;;;;0.84;100.00;103589.22;5056709;28;20025;-77
2022/02/26 07:52:59;;;;;;;40.05;18.27;;;;;;;0.89;100.00;103594.88;5044733;28;20489;-75
2022/02/26 07:55:25;;;;;;;45.83;19.20;;;;;;;0.94;100.00;103588.47;5059324;28;20020;-76
2022/02/26 07:57:51;;;;;;;41.10;18.15;;;;;;;0.98;100.00;103590.63;5071467;28;20031;-73
2022/02/26 08:00:17;;;;;;;35.17;17.38;;;;;;;1.00;100.00;103584.81;5050497;28;20037;-75
2022/02/26 08:02:44;;;;;;;40.25;19.58;;;;;;;1.04;100.00;103592.91;5061624;28;20029;-76
2022/02/26 08:05:09;;;;;;;37.85;19.33;;;;;;;1.07;100.00;103591.53;5049168;28;20353;-76
2022/02/26 08:07:34;;;;;;;46.25;21.00;;;;;;;1.11;100.00;103591.09;5052681;28;20031;-78
2022/02/26 08:10:00;;;;;;;42.25;19.38;;;;;;;1.15;100.00;103592.28;5052045;28;20031;-78
2022/02/26 08:12:25;;;;;;;42.65;20.65;;;;;;;1.22;100.00;103591.22;5055135;28;20016;-78
2022/02/26 08:14:51;;;;;;;39.53;20.02;;;;;;;1.26;100.00;103591.69;5069472;28;20107;-77
2022/02/26 08:17:16;;;;;;;44.30;22.13;;;;;;;1.31;100.00;103593.03;5066204;28;20025;-76
2022/02/26 08:19:42;;;;;;;44.72;21.25;;;;;;;1.33;100.00;103594.09;5059874;28;20089;-76
2022/02/26 08:22:07;;;;;;;41.75;20.48;;;;;;;1.39;100.00;103591.19;5056924;28;20029;-76
2022/02/26 08:24:34;;;;;;;37.90;20.55;;;;;;;1.48;100.00;103593.81;5042891;28;20107;-77
2022/02/26 08:27:00;;;;;;;43.78;20.08;;;;;;;1.49;100.00;103598.19;5044300;28;20017;-76
2022/02/26 08:29:25;;;;;;;46.38;20.33;;;;;;;1.54;100.00;103591.78;5073318;28;20031;-76
2022/02/26 08:31:50;;;;;;;37.97;19.17;;;;;;;1.63;100.00;103587.50;5058730;28;20431;-76
2022/02/26 08:34:16;;;;;;;34.30;20.05;;;;;;;1.68;100.00;103591.47;5061797;28;20538;-75
2022/02/26 08:36:43;;;;;;;34.15;21.00;;;;;;;1.75;100.00;103598.16;5050496;28;20024;-77
2022/02/26 08:39:08;;;;;;;40.38;20.58;;;;;;;1.79;100.00;103604.53;5044887;28;20028;-77
2022/02/26 08:41:34;;;;;;;36.78;20.63;;;;;;;1.87;100.00;103603.59;5049774;28;20043;-78
2022/02/26 08:43:59;;;;;;;41.75;23.00;;;;;;;1.90;100.00;103592.59;5054400;28;20028;-76
2022/02/26 08:46:24;;;;;;;44.92;22.02;;;;;;;1.93;100.00;103604.22;5066023;28;20064;-77
2022/02/26 08:48:51;;;;;;;39.30;21.42;;;;;;;2.01;100.00;103607.56;5072710;28;20049;-78
2022/02/26 08:51:16;;;;;;;40.58;23.38;;;;;;;2.07;100.00;103604.63;5054425;28;20021;-77
2022/02/26 08:53:42;;;;;;;37.60;23.65;;;;;;;2.07;100.00;103602.03;5062375;28;20046;-77
2022/02/26 08:56:07;;;;;;;40.00;24.58;;;;;;;2.13;100.00;103593.16;5061507;28;20471;-77
2022/02/26 08:58:32;;;;;;;46.22;24.33;;;;;;;2.21;100.00;103598.16;5048652;28;20029;-77
2022/02/26 09:00:58;;;;;;;44.42;23.60;;;;;;;2.29;100.00;103603.31;5052179;28;20029;-76
2022/02/26 09:03:23;;;;;;;46.28;26.50;;;;;;;2.45;100.00;103602.16;5044268;28;20020;-76
2022/02/26 09:05:50;;;;;;;46.45;25.77;;;;;;;2.58;100.00;103597.34;5053819;28;20115;-77
2022/02/26 09:08:16;;;;;;;48.78;26.50;;;;;;;2.75;100.00;103603.19;5053481;28;20025;-76
2022/02/26 09:10:41;;;;;;;47.50;25.83;;;;;;;2.87;100.00;103605.22;5041747;28;20048;-77
2022/02/26 09:13:07;;;;;;;51.97;26.10;;;;;;;3.01;100.00;103608.19;5070768;28;20059;-75
2022/02/26 09:15:32;;;;;;;48.25;25.85;;;;;;;3.16;100.00;103612.22;5055075;28;20043;-76
2022/02/26 09:17:58;;;;;;;48.42;24.25;;;;;;;3.33;100.00;103605.03;5058119;28;20024;-77
2022/02/26 09:20:23;;;;;;;47.72;24.02;;;;;;;3.48;100.00;103605.50;5065273;28;20024;-77
2022/02/26 09:22:49;;;;;;;32.92;21.45;;;;;;;3.70;100.00;103601.47;5058313;28;20025;-76
2022/02/26 09:25:15;;;;;;;37.28;22.42;;;;;;;3.91;100.00;103595.38;5059689;28;20522;-76
2022/02/26 09:27:43;;;;;;;35.28;20.95;;;;;;;4.22;100.00;103599.03;5039113;28;20033;-76
2022/02/26 09:30:08;;;;;;;33.42;21.45;;;;;;;4.75;100.00;103603.47;5047184;28;20094;-77
2022/02/26 09:32:34;;;;;;;39.10;20.02;;;;;;;5.21;100.00;103602.16;5062705;28;20037;-76
2022/02/26 09:34:59;;;;;;;27.95;15.75;;;;;;;5.80;100.00;103597.34;5048621;28;20361;-75
2022/02/26 09:37:25;;;;;;;24.13;13.35;;;;;;;6.34;100.00;103591.19;5045833;28;20033;-77
2022/02/26 09:39:51;;;;;;;20.30;12.32;;;;;;;6.81;100.00;103589.53;5048996;28;20113;-77
2022/02/26 09:42:22;;;;;;;27.23;10.85;;;;;;;7.39;100.00;103585.13;5043007;28;20029;-77
2022/02/26 09:44:48;;;;;;;20.38;10.10;;;;;;;7.67;100.00;103588.06;5077334;28;20024;-75
2022/02/26 09:47:14;;;;;;;21.27;9.35;;;;;;;7.99;100.00;103581.63;5055737;28;20167;-77
2022/02/26 09:49:39;;;;;;;20.10;10.10;;;;;;;8.41;97.90;103582.84;5057539;28;20417;-76
2022/02/26 09:52:10;;;;;;;13.45;6.70;;;;;;;8.67;92.00;103577.56;5050377;28;20029;-79
2022/02/26 09:54:36;;;;;;;16.83;6.65;;;;;;;8.74;91.89;103586.00;5050070;28;20388;-77
2022/02/26 09:57:01;;;;;;;17.17;6.22;;;;;;;8.82;87.98;103582.97;5058272;28;20024;-77
2022/02/26 09:59:27;;;;;;;15.40;7.22;;;;;;;8.90;89.90;103584.44;5076472;28;20051;-76
2022/02/26 10:02:00;;;;;;;17.75;6.35;;;;;;;8.93;87.96;103579.38;5051368;28;20111;-76
2022/02/26 10:04:26;;;;;;;15.73;6.93;;;;;;;9.03;88.38;103579.16;5056875;28;20427;-76
2022/02/26 10:07:07;;;;;;;20.77;7.32;;;;;;;8.96;86.78;103582.19;5045213;28;20028;-75
2022/02/26 10:09:38;;;;;;;14.07;5.43;;;;;;;9.17;86.85;103579.19;5047121;28;20071;-75
2022/02/26 10:12:14;;;;;;;18.65;5.50;;;;;;;9.28;84.61;103572.94;5066475;28;20025;-76
2022/02/26 10:14:40;;;;;;;15.95;6.05;;;;;;;9.38;84.66;103579.69;5056685;28;20040;-75
2022/02/26 10:17:05;;;;;;;12.73;5.20;;;;;;;9.57;84.64;103592.31;5047509;28;20036;-77
2022/02/26 10:19:32;;;;;;;14.30;6.30;;;;;;;9.49;85.07;103597.06;5046316;28;20029;-77
2022/02/26 10:22:08;;;;;;;16.23;6.32;;;;;;;9.45;83.60;103593.34;5065521;28;20490;-76
2022/02/26 10:24:36;;;;;;;14.85;5.72;;;;;;;9.56;85.06;103583.53;5038546;28;20029;-76
2022/02/26 10:27:10;;;;;;;15.57;6.13;;;;;;;9.76;81.23;103582.16;5066275;28;20043;-75
2022/02/26 10:29:37;;;;;;;15.10;5.53;;;;;;;9.83;81.44;103586.09;5067859;28;20025;-76
2022/02/26 10:32:04;;;;;;;18.83;5.05;;;;;;;9.86;80.39;103577.50;5039168;28;20381;-75
2022/02/26 10:34:31;;;;;;;16.65;5.15;;;;;;;9.99;78.68;103580.09;5043728;28;20028;-75
2022/02/26 10:37:02;;;;;;;17.55;5.85;;;;;;;10.30;78.82;103584.66;5055800;28;20471;-76
2022/02/26 10:39:29;;;;;;;12.52;5.00;;;;;;;10.34;79.42;103597.19;5074768;28;20496;-76
2022/02/26 10:41:55;;;;;;;19.00;4.97;;;;;;;10.47;81.74;103577.81;5057830;28;20492;-75
2022/02/26 10:44:21;;;;;;;14.43;5.38;;;;;;;10.72;79.41;103579.31;5054261;28;20052;-75
2022/02/26 10:46:46;;;;;;;11.45;4.20;;;;;;;11.07;77.55;103578.78;5066132;28;20052;-75
2022/02/26 10:49:16;;;;;;;13.27;3.90;;;;;;;11.32;71.12;103579.31;5058449;28;20095;-75
2022/02/26 10:51:43;;;;;;;9.35;4.15;;;;;;;11.33;69.96;103579.38;5083327;28;20070;-75
2022/02/26 10:54:16;;;;;;;13.80;4.75;;;;;;;11.36;70.47;103571.66;5057505;28;20392;-75
2022/02/26 10:56:44;;;;;;;11.43;4.72;;;;;;;11.48;69.10;103567.06;5050796;28;20024;-75
2022/02/26 10:59:11;;;;;;;11.85;4.25;;;;;;;11.55;67.69;103568.31;5043820;28;20088;-75
2022/02/26 11:01:38;;;;;;;13.82;5.28;;;;;;;11.77;68.88;103574.81;5052013;28;20384;-76
2022/02/26 11:04:04;;;;;;;10.32;4.32;;;;;;;11.82;65.64;103563.66;5073489;28;20034;-74
2022/02/26 11:06:32;;;;;;;15.00;4.40;;;;;;;11.92;63.49;103569.47;5073173;28;20032;-75
2022/02/26 11:08:58;;;;;;;12.90;4.28;;;;;;;12.30;65.36;103570.66;5053153;28;20028;-75
2022/02/26 11:11:24;;;;;;;11.80;4.32;;;;;;;12.47;65.76;103561.91;5059822;28;20047;-76